sensor_id;sensor_type;location;lat;lon;timestamp;pressure;altitude;pressure_sealevel;temperature;humidity
46534;BME280;32260;52.008;4.752;2022-11-02T00:01:23;101342.38;;;13.39;74.59
46534;BME280;32260;52.008;4.752;2022-11-02T00:03:50;101341.72;;;13.30;74.58
46534;BME280;32260;52.008;4.752;2022-11-02T00:06:16;101348.03;;;13.24;75.02
46534;BME280;32260;52.008;4.752;2022-11-02T00:08:42;101343.63;;;13.23;75.71
46534;BME280;32260;52.008;4.752;2022-11-02T00:11:08;101345.28;;;13.29;75.12
46534;BME280;32260;52.008;4.752;2022-11-02T00:13:34;101340.97;;;13.23;74.85
46534;BME280;32260;52.008;4.752;2022-11-02T00:16:03;101361.16;;;13.32;74.64
46534;BME280;32260;52.008;4.752;2022-11-02T00:18:31;101345.16;;;13.33;74.58
46534;BME280;32260;52.008;4.752;2022-11-02T00:20:59;101356.59;;;13.37;74.21
46534;BME280;32260;52.008;4.752;2022-11-02T00:23:26;101350.41;;;13.38;74.55
46534;BME280;32260;52.008;4.752;2022-11-02T00:25:54;101345.84;;;13.45;73.80
46534;BME280;32260;52.008;4.752;2022-11-02T00:28:20;101362.47;;;13.53;73.84
46534;BME280;32260;52.008;4.752;2022-11-02T00:30:47;101377.44;;;13.58;73.75
46534;BME280;32260;52.008;4.752;2022-11-02T00:33:13;101408.63;;;13.52;73.74
46534;BME280;32260;52.008;4.752;2022-11-02T00:35:39;101409.28;;;13.22;71.03
46534;BME280;32260;52.008;4.752;2022-11-02T00:38:06;101417.97;;;12.90;69.28
46534;BME280;32260;52.008;4.752;2022-11-02T00:40:33;101379.19;;;12.78;69.69
46534;BME280;32260;52.008;4.752;2022-11-02T00:42:59;101374.88;;;12.71;70.13
46534;BME280;32260;52.008;4.752;2022-11-02T00:45:25;101380.41;;;12.61;69.36
46534;BME280;32260;52.008;4.752;2022-11-02T00:47:51;101390.34;;;12.52;70.27
46534;BME280;32260;52.008;4.752;2022-11-02T00:50:18;101384.34;;;12.40;69.71
46534;BME280;32260;52.008;4.752;2022-11-02T00:52:44;101361.34;;;12.39;69.35
46534;BME280;32260;52.008;4.752;2022-11-02T00:55:10;101379.06;;;12.39;69.54
46534;BME280;32260;52.008;4.752;2022-11-02T00:57:38;101367.63;;;12.35;69.23
46534;BME280;32260;52.008;4.752;2022-11-02T01:00:07;101371.16;;;12.36;68.85
46534;BME280;32260;52.008;4.752;2022-11-02T01:02:35;101363.16;;;12.36;69.22
46534;BME280;32260;52.008;4.752;2022-11-02T01:05:02;101370.53;;;12.21;69.05
46534;BME280;32260;52.008;4.752;2022-11-02T01:07:29;101361.59;;;12.25;69.37
46534;BME280;32260;52.008;4.752;2022-11-02T01:09:55;101368.59;;;12.29;69.79
46534;BME280;32260;52.008;4.752;2022-11-02T01:12:22;101359.97;;;12.18;70.06
46534;BME280;32260;52.008;4.752;2022-11-02T01:14:48;101357.16;;;12.27;70.04
46534;BME280;32260;52.008;4.752;2022-11-02T01:17:16;101375.84;;;12.21;70.04
46534;BME280;32260;52.008;4.752;2022-11-02T01:19:42;101365.22;;;12.21;70.35
46534;BME280;32260;52.008;4.752;2022-11-02T01:22:08;101371.59;;;12.11;70.14
46534;BME280;32260;52.008;4.752;2022-11-02T01:24:35;101354.69;;;12.17;70.06
46534;BME280;32260;52.008;4.752;2022-11-02T01:27:01;101354.81;;;12.09;69.83
46534;BME280;32260;52.008;4.752;2022-11-02T01:29:27;101349.44;;;12.12;70.29
46534;BME280;32260;52.008;4.752;2022-11-02T01:31:53;101358.50;;;12.02;70.48
46534;BME280;32260;52.008;4.752;2022-11-02T01:34:21;101361.25;;;11.94;70.52
46534;BME280;32260;52.008;4.752;2022-11-02T01:36:47;101365.88;;;11.81;70.73
46534;BME280;32260;52.008;4.752;2022-11-02T01:39:14;101360.53;;;11.84;70.86
46534;BME280;32260;52.008;4.752;2022-11-02T01:41:41;101361.41;;;11.85;70.45
46534;BME280;32260;52.008;4.752;2022-11-02T01:44:32;101354.19;;;11.93;70.04
46534;BME280;32260;52.008;4.752;2022-11-02T01:48:02;101352.59;;;11.82;70.82
46534;BME280;32260;52.008;4.752;2022-11-02T01:49:52;101358.63;;;11.91;70.05
46534;BME280;32260;52.008;4.752;2022-11-02T01:52:25;101349.75;;;11.93;70.60
46534;BME280;32260;52.008;4.752;2022-11-02T01:54:58;101346.19;;;11.94;70.54
46534;BME280;32260;52.008;4.752;2022-11-02T01:57:26;101360.22;;;12.04;69.88
46534;BME280;32260;52.008;4.752;2022-11-02T02:02:51;101352.28;;;12.03;70.22
46534;BME280;32260;52.008;4.752;2022-11-02T02:05:20;101352.31;;;12.00;70.44
46534;BME280;32260;52.008;4.752;2022-11-02T02:07:48;101361.19;;;11.98;70.61
46534;BME280;32260;52.008;4.752;2022-11-02T02:10:15;101377.16;;;11.97;70.90
46534;BME280;32260;52.008;4.752;2022-11-02T02:12:42;101374.44;;;12.02;70.78
46534;BME280;32260;52.008;4.752;2022-11-02T02:15:10;101379.53;;;12.14;70.90
46534;BME280;32260;52.008;4.752;2022-11-02T02:17:59;101374.00;;;12.26;70.99
46534;BME280;32260;52.008;4.752;2022-11-02T02:29:21;101339.53;;;12.66;72.10
46534;BME280;32260;52.008;4.752;2022-11-02T02:32:55;101356.47;;;12.61;72.01
46534;BME280;32260;52.008;4.752;2022-11-02T02:37:38;101358.69;;;12.85;71.90
46534;BME280;32260;52.008;4.752;2022-11-02T02:42:47;101366.66;;;12.83;71.96
46534;BME280;32260;52.008;4.752;2022-11-02T02:45:32;101375.44;;;12.87;71.84
46534;BME280;32260;52.008;4.752;2022-11-02T02:48:09;101356.75;;;12.91;71.64
46534;BME280;32260;52.008;4.752;2022-11-02T02:50:48;101379.69;;;12.95;70.98
46534;BME280;32260;52.008;4.752;2022-11-02T02:53:22;101361.94;;;12.98;70.36
46534;BME280;32260;52.008;4.752;2022-11-02T02:55:51;101337.91;;;13.02;70.23
46534;BME280;32260;52.008;4.752;2022-11-02T02:58:23;101327.28;;;13.01;69.94
46534;BME280;32260;52.008;4.752;2022-11-02T03:00:51;101349.41;;;13.03;70.35
46534;BME280;32260;52.008;4.752;2022-11-02T03:03:23;101351.28;;;12.98;70.49
46534;BME280;32260;52.008;4.752;2022-11-02T03:06:14;101360.19;;;12.97;70.91
46534;BME280;32260;52.008;4.752;2022-11-02T03:08:45;101361.03;;;12.97;70.87
46534;BME280;32260;52.008;4.752;2022-11-02T03:11:16;101364.84;;;12.85;72.03
46534;BME280;32260;52.008;4.752;2022-11-02T03:14:06;101362.19;;;12.85;71.58
46534;BME280;32260;52.008;4.752;2022-11-02T03:16:53;101372.09;;;12.77;71.88
46534;BME280;32260;52.008;4.752;2022-11-02T03:19:41;101368.53;;;12.78;72.55
46534;BME280;32260;52.008;4.752;2022-11-02T03:22:33;101369.41;;;12.80;72.30
46534;BME280;32260;52.008;4.752;2022-11-02T03:27:43;101365.84;;;12.81;71.69
46534;BME280;32260;52.008;4.752;2022-11-02T03:30:16;101381.47;;;12.97;71.60
46534;BME280;32260;52.008;4.752;2022-11-02T03:32:56;101370.72;;;13.01;70.95
46534;BME280;32260;52.008;4.752;2022-11-02T03:35:48;101377.53;;;13.13;70.55
46534;BME280;32260;52.008;4.752;2022-11-02T03:38:23;101384.88;;;13.02;70.46
46534;BME280;32260;52.008;4.752;2022-11-02T03:40:52;101385.69;;;13.05;70.18
46534;BME280;32260;52.008;4.752;2022-11-02T03:43:20;101400.94;;;12.97;69.68
46534;BME280;32260;52.008;4.752;2022-11-02T03:45:50;101399.09;;;13.01;69.80
46534;BME280;32260;52.008;4.752;2022-11-02T03:48:18;101412.25;;;13.07;70.03
46534;BME280;32260;52.008;4.752;2022-11-02T03:50:49;101440.78;;;13.00;69.86
46534;BME280;32260;52.008;4.752;2022-11-02T03:53:21;101418.31;;;13.15;70.08
46534;BME280;32260;52.008;4.752;2022-11-02T03:55:54;101426.34;;;13.14;70.33
46534;BME280;32260;52.008;4.752;2022-11-02T03:58:23;101412.13;;;13.15;69.51
46534;BME280;32260;52.008;4.752;2022-11-02T04:00:53;101430.66;;;13.18;69.97
46534;BME280;32260;52.008;4.752;2022-11-02T04:03:22;101426.47;;;13.06;70.22
46534;BME280;32260;52.008;4.752;2022-11-02T04:05:49;101438.09;;;13.02;70.29
46534;BME280;32260;52.008;4.752;2022-11-02T04:08:20;101447.91;;;12.98;70.42
46534;BME280;32260;52.008;4.752;2022-11-02T04:10:48;101434.59;;;13.00;70.15
46534;BME280;32260;52.008;4.752;2022-11-02T04:13:35;101434.63;;;12.98;69.92
46534;BME280;32260;52.008;4.752;2022-11-02T04:16:21;101455.00;;;12.99;70.24
46534;BME280;32260;52.008;4.752;2022-11-02T04:18:48;101475.41;;;12.97;70.35
46534;BME280;32260;52.008;4.752;2022-11-02T04:21:34;101504.03;;;12.84;70.43
46534;BME280;32260;52.008;4.752;2022-11-02T04:24:00;101480.72;;;12.99;70.33
46534;BME280;32260;52.008;4.752;2022-11-02T04:26:46;101496.03;;;12.86;70.52
46534;BME280;32260;52.008;4.752;2022-11-02T04:29:15;101486.16;;;12.92;70.58
46534;BME280;32260;52.008;4.752;2022-11-02T04:31:41;101487.00;;;12.94;70.62
46534;BME280;32260;52.008;4.752;2022-11-02T04:34:07;101507.13;;;13.08;70.10
46534;BME280;32260;52.008;4.752;2022-11-02T04:36:33;101499.22;;;13.05;70.30
46534;BME280;32260;52.008;4.752;2022-11-02T04:38:59;101514.44;;;12.97;70.98
46534;BME280;32260;52.008;4.752;2022-11-02T04:41:25;101522.31;;;13.03;71.02
46534;BME280;32260;52.008;4.752;2022-11-02T04:44:07;101521.41;;;13.04;71.04
46534;BME280;32260;52.008;4.752;2022-11-02T04:46:35;101549.03;;;12.97;72.31
46534;BME280;32260;52.008;4.752;2022-11-02T04:49:03;101543.81;;;12.90;72.33
46534;BME280;32260;52.008;4.752;2022-11-02T04:51:30;101553.56;;;12.91;72.45
46534;BME280;32260;52.008;4.752;2022-11-02T04:53:57;101559.81;;;12.89;72.81
46534;BME280;32260;52.008;4.752;2022-11-02T04:56:25;101566.06;;;12.86;72.95
46534;BME280;32260;52.008;4.752;2022-11-02T04:58:53;101567.22;;;12.71;73.42
46534;BME280;32260;52.008;4.752;2022-11-02T05:01:21;101561.94;;;12.68;73.10
46534;BME280;32260;52.008;4.752;2022-11-02T05:03:49;101565.59;;;12.61;73.39
46534;BME280;32260;52.008;4.752;2022-11-02T05:06:16;101561.19;;;12.61;72.69
46534;BME280;32260;52.008;4.752;2022-11-02T05:08:43;101566.53;;;12.58;72.81
46534;BME280;32260;52.008;4.752;2022-11-02T05:11:10;101571.97;;;12.51;73.43
46534;BME280;32260;52.008;4.752;2022-11-02T05:13:38;101573.69;;;12.56;72.97
46534;BME280;32260;52.008;4.752;2022-11-02T05:16:04;101582.56;;;12.52;72.57
46534;BME280;32260;52.008;4.752;2022-11-02T05:18:37;101586.97;;;12.56;73.14
46534;BME280;32260;52.008;4.752;2022-11-02T05:21:13;101603.75;;;12.58;73.00
46534;BME280;32260;52.008;4.752;2022-11-02T05:23:41;101608.25;;;12.53;73.58
46534;BME280;32260;52.008;4.752;2022-11-02T05:26:10;101606.50;;;12.54;72.97
46534;BME280;32260;52.008;4.752;2022-11-02T05:28:36;101623.41;;;12.48;72.90
46534;BME280;32260;52.008;4.752;2022-11-02T05:31:03;101623.69;;;12.29;72.63
46534;BME280;32260;52.008;4.752;2022-11-02T05:33:30;101624.28;;;12.50;71.53
46534;BME280;32260;52.008;4.752;2022-11-02T05:36:00;101620.81;;;12.43;70.80
46534;BME280;32260;52.008;4.752;2022-11-02T05:38:26;101626.94;;;12.50;70.17
46534;BME280;32260;52.008;4.752;2022-11-02T05:40:54;101638.41;;;12.52;69.39
46534;BME280;32260;52.008;4.752;2022-11-02T05:43:21;101650.66;;;12.62;68.45
46534;BME280;32260;52.008;4.752;2022-11-02T05:45:52;101648.84;;;12.65;67.98
46534;BME280;32260;52.008;4.752;2022-11-02T05:48:18;101656.06;;;12.56;66.97
46534;BME280;32260;52.008;4.752;2022-11-02T05:50:45;101655.00;;;12.70;67.01
46534;BME280;32260;52.008;4.752;2022-11-02T05:53:11;101660.25;;;12.73;67.23
46534;BME280;32260;52.008;4.752;2022-11-02T05:55:37;101670.78;;;12.79;67.34
46534;BME280;32260;52.008;4.752;2022-11-02T05:58:05;101671.88;;;12.66;66.59
46534;BME280;32260;52.008;4.752;2022-11-02T06:00:31;101679.00;;;12.64;66.12
46534;BME280;32260;52.008;4.752;2022-11-02T06:02:58;101697.53;;;12.68;66.34
46534;BME280;32260;52.008;4.752;2022-11-02T06:05:25;101688.63;;;12.71;65.97
46534;BME280;32260;52.008;4.752;2022-11-02T06:07:51;101693.88;;;12.75;65.78
46534;BME280;32260;52.008;4.752;2022-11-02T06:10:17;101694.00;;;12.68;65.87
46534;BME280;32260;52.008;4.752;2022-11-02T06:12:44;101710.94;;;12.60;65.71
46534;BME280;32260;52.008;4.752;2022-11-02T06:15:10;101703.94;;;12.56;64.92
46534;BME280;32260;52.008;4.752;2022-11-02T06:17:40;101710.91;;;12.64;65.22
46534;BME280;32260;52.008;4.752;2022-11-02T06:20:07;101710.88;;;12.65;65.38
46534;BME280;32260;52.008;4.752;2022-11-02T06:22:43;101724.16;;;12.67;64.80
46534;BME280;32260;52.008;4.752;2022-11-02T06:25:14;101725.94;;;12.65;64.47
46534;BME280;32260;52.008;4.752;2022-11-02T06:27:40;101740.09;;;12.67;64.92
46534;BME280;32260;52.008;4.752;2022-11-02T06:30:07;101740.22;;;12.59;63.69
46534;BME280;32260;52.008;4.752;2022-11-02T06:32:34;101751.66;;;12.64;63.88
46534;BME280;32260;52.008;4.752;2022-11-02T06:35:00;101747.22;;;12.66;62.66
46534;BME280;32260;52.008;4.752;2022-11-02T06:37:26;101755.28;;;12.60;63.17
46534;BME280;32260;52.008;4.752;2022-11-02T06:39:52;101763.13;;;12.68;62.79
46534;BME280;32260;52.008;4.752;2022-11-02T06:42:18;101769.31;;;12.68;62.86
46534;BME280;32260;52.008;4.752;2022-11-02T06:44:47;101776.47;;;12.65;62.36
46534;BME280;32260;52.008;4.752;2022-11-02T06:47:14;101791.56;;;12.62;61.94
46534;BME280;32260;52.008;4.752;2022-11-02T06:49:42;101793.25;;;12.70;62.67
46534;BME280;32260;52.008;4.752;2022-11-02T06:52:08;101791.44;;;12.72;61.84
46534;BME280;32260;52.008;4.752;2022-11-02T06:54:34;101808.34;;;12.68;62.92
46534;BME280;32260;52.008;4.752;2022-11-02T06:57:00;101818.16;;;12.62;62.35
46534;BME280;32260;52.008;4.752;2022-11-02T06:59:26;101821.66;;;12.66;62.24
46534;BME280;32260;52.008;4.752;2022-11-02T07:01:52;101826.97;;;12.66;61.99
46534;BME280;32260;52.008;4.752;2022-11-02T07:04:19;101851.91;;;12.57;61.63
46534;BME280;32260;52.008;4.752;2022-11-02T07:06:45;101839.50;;;12.56;62.34
46534;BME280;32260;52.008;4.752;2022-11-02T07:09:11;101846.50;;;12.65;61.62
46534;BME280;32260;52.008;4.752;2022-11-02T07:11:38;101852.66;;;12.69;62.02
46534;BME280;32260;52.008;4.752;2022-11-02T07:14:04;101848.16;;;12.71;62.15
46534;BME280;32260;52.008;4.752;2022-11-02T07:16:30;101852.63;;;12.70;61.51
46534;BME280;32260;52.008;4.752;2022-11-02T07:18:56;101865.88;;;12.73;62.01
46534;BME280;32260;52.008;4.752;2022-11-02T07:21:22;101872.16;;;12.68;62.30
46534;BME280;32260;52.008;4.752;2022-11-02T07:23:49;101878.34;;;12.68;61.64
46534;BME280;32260;52.008;4.752;2022-11-02T07:26:15;101873.91;;;12.67;61.69
46534;BME280;32260;52.008;4.752;2022-11-02T07:28:41;101880.00;;;12.78;62.03
46534;BME280;32260;52.008;4.752;2022-11-02T07:31:07;101882.72;;;12.74;62.04
46534;BME280;32260;52.008;4.752;2022-11-02T07:33:33;101886.25;;;12.74;62.71
46534;BME280;32260;52.008;4.752;2022-11-02T07:36:02;101889.88;;;12.69;62.24
46534;BME280;32260;52.008;4.752;2022-11-02T07:38:29;101889.81;;;12.72;62.54
46534;BME280;32260;52.008;4.752;2022-11-02T07:40:55;101896.00;;;12.74;62.67
46534;BME280;32260;52.008;4.752;2022-11-02T07:43:21;101906.59;;;12.77;62.33
46534;BME280;32260;52.008;4.752;2022-11-02T07:45:47;101908.34;;;12.81;62.86
46534;BME280;32260;52.008;4.752;2022-11-02T07:48:13;101911.81;;;12.86;63.15
46534;BME280;32260;52.008;4.752;2022-11-02T07:50:39;101920.63;;;12.91;63.21
46534;BME280;32260;52.008;4.752;2022-11-02T07:53:05;101914.31;;;13.00;63.25
46534;BME280;32260;52.008;4.752;2022-11-02T07:55:32;101919.59;;;13.02;62.50
46534;BME280;32260;52.008;4.752;2022-11-02T07:58:01;101921.25;;;13.10;62.93
46534;BME280;32260;52.008;4.752;2022-11-02T08:00:31;101922.03;;;13.19;62.97
46534;BME280;32260;52.008;4.752;2022-11-02T08:03:00;101918.44;;;13.23;62.41
46534;BME280;32260;52.008;4.752;2022-11-02T08:05:31;101929.91;;;13.26;61.85
46534;BME280;32260;52.008;4.752;2022-11-02T08:08:05;101931.72;;;13.23;61.33
46534;BME280;32260;52.008;4.752;2022-11-02T08:10:34;101940.63;;;13.22;61.20
46534;BME280;32260;52.008;4.752;2022-11-02T08:13:01;101951.97;;;13.38;60.42
46534;BME280;32260;52.008;4.752;2022-11-02T08:15:28;101945.72;;;13.40;60.51
46534;BME280;32260;52.008;4.752;2022-11-02T08:20:38;101939.28;;;13.55;59.56
46534;BME280;32260;52.008;4.752;2022-11-02T08:23:08;101953.50;;;13.54;58.90
46534;BME280;32260;52.008;4.752;2022-11-02T08:25:36;101951.69;;;13.59;59.49
46534;BME280;32260;52.008;4.752;2022-11-02T08:28:05;101948.94;;;13.66;58.92
46534;BME280;32260;52.008;4.752;2022-11-02T08:30:34;101957.81;;;13.65;58.89
46534;BME280;32260;52.008;4.752;2022-11-02T08:33:04;101949.78;;;13.66;58.71
46534;BME280;32260;52.008;4.752;2022-11-02T08:35:34;101954.94;;;13.79;59.45
46534;BME280;32260;52.008;4.752;2022-11-02T08:38:03;101955.81;;;13.79;59.27
46534;BME280;32260;52.008;4.752;2022-11-02T08:40:30;101962.97;;;13.74;58.19
46534;BME280;32260;52.008;4.752;2022-11-02T08:42:58;101967.34;;;13.78;58.09
46534;BME280;32260;52.008;4.752;2022-11-02T08:45:27;101968.97;;;13.90;58.00
46534;BME280;32260;52.008;4.752;2022-11-02T08:47:54;101971.56;;;13.95;57.92
46534;BME280;32260;52.008;4.752;2022-11-02T08:50:21;101965.34;;;13.96;57.05
46534;BME280;32260;52.008;4.752;2022-11-02T08:52:48;101976.84;;;13.96;57.00
46534;BME280;32260;52.008;4.752;2022-11-02T08:55:14;101981.13;;;14.06;56.95
46534;BME280;32260;52.008;4.752;2022-11-02T08:57:49;101984.59;;;14.13;56.69
46534;BME280;32260;52.008;4.752;2022-11-02T09:00:17;101992.59;;;14.12;55.63
46534;BME280;32260;52.008;4.752;2022-11-02T09:02:56;101986.38;;;14.11;55.52
46534;BME280;32260;52.008;4.752;2022-11-02T09:05:23;101989.75;;;14.22;56.04
46534;BME280;32260;52.008;4.752;2022-11-02T09:08:07;101996.84;;;14.23;55.13
46534;BME280;32260;52.008;4.752;2022-11-02T09:10:36;101990.56;;;14.26;55.08
46534;BME280;32260;52.008;4.752;2022-11-02T09:13:05;102004.06;;;14.15;54.75
46534;BME280;32260;52.008;4.752;2022-11-02T09:15:34;102005.81;;;14.19;54.56
46534;BME280;32260;52.008;4.752;2022-11-02T09:18:01;102001.41;;;14.15;53.89
46534;BME280;32260;52.008;4.752;2022-11-02T09:20:27;101996.84;;;14.23;55.13
46534;BME280;32260;52.008;4.752;2022-11-02T09:22:59;102001.19;;;14.29;54.89
46534;BME280;32260;52.008;4.752;2022-11-02T09:25:27;102005.59;;;14.32;55.04
46534;BME280;32260;52.008;4.752;2022-11-02T09:27:55;102014.28;;;14.42;55.06
46534;BME280;32260;52.008;4.752;2022-11-02T09:30:22;102013.25;;;14.50;55.24
46534;BME280;32260;52.008;4.752;2022-11-02T09:33:00;102010.16;;;14.77;56.41
46534;BME280;32260;52.008;4.752;2022-11-02T09:35:32;102019.88;;;14.81;57.59
46534;BME280;32260;52.008;4.752;2022-11-02T09:38:04;102022.50;;;14.82;58.79
46534;BME280;32260;52.008;4.752;2022-11-02T09:40:40;102028.63;;;14.87;59.09
46534;BME280;32260;52.008;4.752;2022-11-02T09:43:31;102015.09;;;14.98;58.94
46534;BME280;32260;52.008;4.752;2022-11-02T09:46:00;102016.88;;;14.96;59.57
46534;BME280;32260;52.008;4.752;2022-11-02T09:48:35;102021.41;;;14.94;59.71
46534;BME280;32260;52.008;4.752;2022-11-02T09:51:15;102015.88;;;15.03;59.76
46534;BME280;32260;52.008;4.752;2022-11-02T09:54:38;102020.09;;;15.15;59.14
46534;BME280;32260;52.008;4.752;2022-11-02T09:56:53;102028.19;;;15.11;59.46
46534;BME280;32260;52.008;4.752;2022-11-02T09:59:23;102034.50;;;15.05;59.32
46534;BME280;32260;52.008;4.752;2022-11-02T10:04:38;102037.41;;;14.94;59.84
46534;BME280;32260;52.008;4.752;2022-11-02T10:07:28;102040.03;;;14.96;59.72
46534;BME280;32260;52.008;4.752;2022-11-02T10:13:24;102042.91;;;14.85;59.97
46534;BME280;32260;52.008;4.752;2022-11-02T10:18:29;102040.28;;;14.83;59.39
46534;BME280;32260;52.008;4.752;2022-11-02T10:20:59;102036.34;;;15.03;58.59
46534;BME280;32260;52.008;4.752;2022-11-02T10:26:05;102046.41;;;15.34;58.72
46534;BME280;32260;52.008;4.752;2022-11-02T10:28:35;102059.31;;;15.56;59.02
46534;BME280;32260;52.008;4.752;2022-11-02T10:31:05;102054.69;;;15.64;58.54
46534;BME280;32260;52.008;4.752;2022-11-02T10:33:40;102070.50;;;15.73;57.76
46534;BME280;32260;52.008;4.752;2022-11-02T10:36:21;102071.34;;;15.75;57.68
46534;BME280;32260;52.008;4.752;2022-11-02T10:39:10;102072.91;;;15.87;57.25
46534;BME280;32260;52.008;4.752;2022-11-02T10:42:10;102069.19;;;15.94;57.65
46534;BME280;32260;52.008;4.752;2022-11-02T10:47:20;102072.84;;;15.90;57.95
46534;BME280;32260;52.008;4.752;2022-11-02T10:51:09;102072.81;;;15.92;57.52
46534;BME280;32260;52.008;4.752;2022-11-02T10:53:02;102063.66;;;16.02;58.09
46534;BME280;32260;52.008;4.752;2022-11-02T10:55:40;102065.31;;;16.06;57.67
46534;BME280;32260;52.008;4.752;2022-11-02T10:58:14;102057.25;;;16.09;58.04
46534;BME280;32260;52.008;4.752;2022-11-02T11:00:42;102060.78;;;16.11;58.20
46534;BME280;32260;52.008;4.752;2022-11-02T11:03:31;102062.50;;;16.12;57.92
46534;BME280;32260;52.008;4.752;2022-11-02T11:08:39;102066.03;;;16.14;56.61
46534;BME280;32260;52.008;4.752;2022-11-02T11:11:17;102073.06;;;16.18;55.93
46534;BME280;32260;52.008;4.752;2022-11-02T11:14:02;102075.72;;;16.20;55.83
46534;BME280;32260;52.008;4.752;2022-11-02T11:22:38;102055.94;;;16.62;55.40
46534;BME280;32260;52.008;4.752;2022-11-02T11:27:51;102043.09;;;16.76;55.29
46534;BME280;32260;52.008;4.752;2022-11-02T11:30:26;102043.88;;;16.80;54.39
46534;BME280;32260;52.008;4.752;2022-11-02T11:32:55;102041.16;;;16.81;53.43
46534;BME280;32260;52.008;4.752;2022-11-02T11:35:24;102057.22;;;16.81;54.12
46534;BME280;32260;52.008;4.752;2022-11-02T11:37:56;102059.03;;;16.81;53.80
46534;BME280;32260;52.008;4.752;2022-11-02T11:40:24;102058.19;;;16.79;53.32
46534;BME280;32260;52.008;4.752;2022-11-02T11:42:54;102065.31;;;16.78;53.53
46534;BME280;32260;52.008;4.752;2022-11-02T11:45:26;102065.41;;;16.75;53.92
46534;BME280;32260;52.008;4.752;2022-11-02T11:48:06;102066.41;;;16.71;53.68
46534;BME280;32260;52.008;4.752;2022-11-02T11:50:47;102056.69;;;16.67;53.83
46534;BME280;32260;52.008;4.752;2022-11-02T11:55:56;102056.38;;;16.79;52.72
46534;BME280;32260;52.008;4.752;2022-11-02T12:17:25;102021.78;;;17.06;52.13
46534;BME280;32260;52.008;4.752;2022-11-02T12:20:18;102030.56;;;17.11;52.53
46534;BME280;32260;52.008;4.752;2022-11-02T12:25:51;102027.94;;;17.08;53.27
46534;BME280;32260;52.008;4.752;2022-11-02T12:28:43;102025.31;;;17.07;54.34
46534;BME280;32260;52.008;4.752;2022-11-02T12:39:39;102038.81;;;17.02;53.28
46534;BME280;32260;52.008;4.752;2022-11-02T12:42:19;102027.56;;;17.22;53.18
46534;BME280;32260;52.008;4.752;2022-11-02T12:50:59;102022.25;;;17.21;52.36
46534;BME280;32260;52.008;4.752;2022-11-02T12:53:41;102018.88;;;17.14;51.11
46534;BME280;32260;52.008;4.752;2022-11-02T12:56:13;102008.94;;;17.18;50.81
46534;BME280;32260;52.008;4.752;2022-11-02T12:58:41;102011.63;;;17.18;50.66
46534;BME280;32260;52.008;4.752;2022-11-02T13:01:19;101990.28;;;17.14;50.45
46534;BME280;32260;52.008;4.752;2022-11-02T13:03:52;101995.78;;;17.10;51.38
46534;BME280;32260;52.008;4.752;2022-11-02T13:06:26;101986.06;;;17.07;50.20
46534;BME280;32260;52.008;4.752;2022-11-02T13:09:03;101994.03;;;17.09;50.88
46534;BME280;32260;52.008;4.752;2022-11-02T13:11:38;101979.38;;;17.21;51.49
46534;BME280;32260;52.008;4.752;2022-11-02T13:14:12;101979.56;;;17.14;50.49
46534;BME280;32260;52.008;4.752;2022-11-02T13:17:00;101983.09;;;17.17;51.23
46534;BME280;32260;52.008;4.752;2022-11-02T13:19:35;101970.66;;;17.14;51.64
46534;BME280;32260;52.008;4.752;2022-11-02T13:22:06;101971.72;;;17.08;51.12
46534;BME280;32260;52.008;4.752;2022-11-02T13:24:39;101985.09;;;17.08;51.35
46534;BME280;32260;52.008;4.752;2022-11-02T13:27:29;101979.06;;;17.02;51.77
46534;BME280;32260;52.008;4.752;2022-11-02T13:29:59;101977.47;;;16.94;52.30
46534;BME280;32260;52.008;4.752;2022-11-02T13:32:45;101976.81;;;16.85;51.47
46534;BME280;32260;52.008;4.752;2022-11-02T13:37:57;101974.38;;;16.77;52.86
46534;BME280;32260;52.008;4.752;2022-11-02T13:40:32;101964.56;;;16.77;53.44
46534;BME280;32260;52.008;4.752;2022-11-02T13:51:51;101958.31;;;17.08;52.80
46534;BME280;32260;52.008;4.752;2022-11-02T13:55:14;101955.47;;;17.14;53.13
46534;BME280;32260;52.008;4.752;2022-11-02T13:56:57;101953.75;;;17.13;52.96
46534;BME280;32260;52.008;4.752;2022-11-02T13:59:28;101950.41;;;17.05;53.29
46534;BME280;32260;52.008;4.752;2022-11-02T14:01:56;101944.75;;;17.14;53.72
46534;BME280;32260;52.008;4.752;2022-11-02T14:04:25;101938.59;;;17.12;53.74
46534;BME280;32260;52.008;4.752;2022-11-02T14:06:59;101938.84;;;17.03;53.66
46534;BME280;32260;52.008;4.752;2022-11-02T14:20:36;101921.25;;;16.96;54.38
46534;BME280;32260;52.008;4.752;2022-11-02T14:28:39;101921.25;;;16.96;54.05
46534;BME280;32260;52.008;4.752;2022-11-02T14:39:17;101924.41;;;16.77;53.52
46534;BME280;32260;52.008;4.752;2022-11-02T14:45:45;101911.91;;;16.78;53.73
46534;BME280;32260;52.008;4.752;2022-11-02T14:47:28;101911.03;;;16.77;53.93
46534;BME280;32260;52.008;4.752;2022-11-02T14:50:02;101912.06;;;16.72;53.97
46534;BME280;32260;52.008;4.752;2022-11-02T14:52:32;101911.72;;;16.53;53.43
46534;BME280;32260;52.008;4.752;2022-11-02T14:57:39;101906.94;;;16.31;53.47
46534;BME280;32260;52.008;4.752;2022-11-02T15:00:26;101902.72;;;16.22;54.13
46534;BME280;32260;52.008;4.752;2022-11-02T15:02:54;101900.47;;;16.07;54.15
46534;BME280;32260;52.008;4.752;2022-11-02T15:05:38;101891.81;;;15.97;54.55
46534;BME280;32260;52.008;4.752;2022-11-02T15:10:43;101898.38;;;15.85;55.51
46534;BME280;32260;52.008;4.752;2022-11-02T15:13:34;101890.34;;;15.83;56.01
46534;BME280;32260;52.008;4.752;2022-11-02T15:18:38;101891.88;;;15.56;56.71
46534;BME280;32260;52.008;4.752;2022-11-02T15:21:21;101884.00;;;15.51;56.92
46534;BME280;32260;52.008;4.752;2022-11-02T15:24:08;101888.53;;;15.48;56.99
46534;BME280;32260;52.008;4.752;2022-11-02T15:26:47;101878.19;;;15.32;57.05